Time;durP1;ratioP1;P1;durP2;ratioP2;P2;SDS_P1;SDS_P2;PMS_P1;PMS_P2;Temp;Humidity;BMP_temperature;BMP_pressure;BME280_temperature;BME280_humidity;BME280_pressure;Samples;Min_cycle;Max_cycle;Signal;HPM_P1;HPM_P2
2022/08/16 00:01:19;;;;;;;16.60;13.20;;;20.20;99.90;;;;;;5092518;28;20158;-72
2022/08/16 00:03:45;;;;;;;23.80;14.83;;;20.20;99.90;;;;;;5093187;28;20466;-72
2022/08/16 00:06:11;;;;;;;20.43;16.67;;;20.20;99.90;;;;;;5092285;28;20453;-71
2022/08/16 00:08:37;;;;;;;17.37;15.17;;;20.10;99.90;;;;;;5093225;28;20419;-72
2022/08/16 00:11:05;;;;;;;16.07;13.30;;;20.10;99.90;;;;;;5093040;28;20405;-72
2022/08/16 00:13:32;;;;;;;16.73;14.10;;;20.10;99.90;;;;;;5074889;28;20764;-71
2022/08/16 00:15:58;;;;;;;20.63;14.30;;;20.10;99.90;;;;;;5092073;28;20435;-72
2022/08/16 00:18:23;;;;;;;16.80;14.90;;;20.10;99.90;;;;;;5092465;28;20402;-72
2022/08/16 00:20:49;;;;;;;14.90;13.37;;;20.10;99.90;;;;;;5091815;28;20527;-71
2022/08/16 00:23:15;;;;;;;16.80;13.03;;;20.00;99.90;;;;;;5092588;28;20548;-72
2022/08/16 00:25:40;;;;;;;18.23;13.83;;;20.10;99.90;;;;;;5091694;28;20221;-71
2022/08/16 00:28:06;;;;;;;18.00;12.60;;;20.00;99.90;;;;;;5092357;28;20167;-71
2022/08/16 00:30:32;;;;;;;16.10;13.43;;;20.10;99.90;;;;;;5092040;28;20163;-71
2022/08/16 00:33:00;;;;;;;15.30;13.27;;;20.00;99.90;;;;;;5092248;28;20536;-72
2022/08/16 00:35:29;;;;;;;18.03;13.53;;;20.00;99.90;;;;;;5091571;28;20425;-72
2022/08/16 00:37:55;;;;;;;16.87;13.17;;;20.00;99.90;;;;;;5092089;28;20502;-72
2022/08/16 00:40:32;;;;;;;15.00;12.33;;;20.00;99.90;;;;;;5092048;28;20449;-72
2022/08/16 00:42:57;;;;;;;16.67;13.60;;;19.90;99.90;;;;;;5093727;28;20163;-72
2022/08/16 00:45:31;;;;;;;19.70;15.10;;;19.90;99.90;;;;;;5092060;28;20458;-71
2022/08/16 00:47:57;;;;;;;17.97;13.67;;;19.90;99.90;;;;;;5094534;28;20657;-71
2022/08/16 00:50:27;;;;;;;24.23;17.07;;;19.90;99.90;;;;;;5092074;28;20429;-72
2022/08/16 00:52:53;;;;;;;19.70;12.63;;;19.90;99.90;;;;;;5091775;28;20776;-72
2022/08/16 00:55:21;;;;;;;13.23;11.93;;;19.80;99.90;;;;;;5091499;28;20431;-72
2022/08/16 00:57:50;;;;;;;12.77;11.50;;;19.80;99.90;;;;;;5092047;28;20175;-72
2022/08/16 01:00:16;;;;;;;14.67;12.87;;;19.80;99.90;;;;;;5091548;28;20404;-72
2022/08/16 01:02:42;;;;;;;12.20;10.80;;;19.80;99.90;;;;;;5091380;28;20401;-72
2022/08/16 01:05:08;;;;;;;13.50;9.63;;;19.80;99.90;;;;;;5072517;28;20874;-71
2022/08/16 01:07:34;;;;;;;10.13;9.03;;;19.80;99.90;;;;;;5091432;28;20197;-72
2022/08/16 01:10:00;;;;;;;13.20;10.63;;;19.70;99.90;;;;;;5091215;28;20902;-72
2022/08/16 01:12:26;;;;;;;11.90;10.07;;;19.70;99.90;;;;;;5091467;28;20164;-72
2022/08/16 01:14:54;;;;;;;14.37;10.50;;;19.70;99.90;;;;;;5090749;28;20277;-72
2022/08/16 01:17:21;;;;;;;12.03;10.83;;;19.70;99.90;;;;;;5091486;28;20219;-71
2022/08/16 01:19:54;;;;;;;16.33;10.50;;;19.70;99.90;;;;;;5091281;28;20405;-72
2022/08/16 01:22:37;;;;;;;11.40;9.57;;;19.60;99.90;;;;;;5091744;28;20992;-72
2022/08/16 01:25:10;;;;;;;14.77;11.10;;;19.60;99.90;;;;;;5088144;28;20506;-72
2022/08/16 01:27:41;;;;;;;11.40;10.20;;;19.60;99.90;;;;;;5073600;28;20409;-71
2022/08/16 01:30:30;;;;;;;12.77;10.97;;;19.60;99.90;;;;;;5091549;28;20419;-72
2022/08/16 01:33:00;;;;;;;11.23;9.53;;;19.60;99.90;;;;;;5095417;28;20404;-72
2022/08/16 01:35:37;;;;;;;13.07;11.07;;;19.60;99.90;;;;;;5094949;28;20929;-72
2022/08/16 01:38:17;;;;;;;13.77;9.83;;;19.60;99.90;;;;;;5095293;28;20436;-72
2022/08/16 01:40:43;;;;;;;15.60;11.50;;;19.60;99.90;;;;;;5095389;28;20832;-71
2022/08/16 01:43:09;;;;;;;12.63;11.27;;;19.50;99.90;;;;;;5094872;28;20445;-71
2022/08/16 01:45:34;;;;;;;15.47;11.07;;;19.50;99.90;;;;;;5094631;28;20198;-72
2022/08/16 01:48:00;;;;;;;12.10;10.47;;;19.50;99.90;;;;;;5095213;28;20185;-72
2022/08/16 01:50:27;;;;;;;14.53;11.73;;;19.50;99.90;;;;;;5094891;28;20162;-72
2022/08/16 01:52:53;;;;;;;11.40;10.30;;;19.50;99.90;;;;;;5094974;28;20157;-72
2022/08/16 01:55:23;;;;;;;12.67;10.50;;;19.50;99.90;;;;;;5076407;28;20426;-71
2022/08/16 01:57:50;;;;;;;13.90;10.23;;;19.50;99.90;;;;;;5094914;28;20804;-71
2022/08/16 02:00:16;;;;;;;12.27;10.87;;;19.40;99.90;;;;;;5094783;28;20404;-71
2022/08/16 02:02:43;;;;;;;14.07;12.63;;;19.50;99.90;;;;;;5094891;28;20411;-72
2022/08/16 02:05:10;;;;;;;14.40;12.47;;;19.50;99.90;;;;;;5094223;28;20837;-71
2022/08/16 02:07:37;;;;;;;12.80;11.03;;;19.40;99.90;;;;;;5094705;28;21104;-71
2022/08/16 02:10:05;;;;;;;14.10;11.47;;;19.40;99.90;;;;;;5094777;28;20405;-72
2022/08/16 02:12:32;;;;;;;13.20;11.37;;;19.40;99.90;;;;;;5094361;28;20453;-72
2022/08/16 02:14:57;;;;;;;13.50;11.63;;;19.40;99.90;;;;;;5094167;28;20436;-72
2022/08/16 02:17:23;;;;;;;15.90;12.47;;;19.40;99.90;;;;;;5094566;28;20929;-71
2022/08/16 02:19:50;;;;;;;11.90;10.57;;;19.30;99.90;;;;;;5094316;28;20190;-72
2022/08/16 02:22:19;;;;;;;15.50;13.10;;;19.40;99.90;;;;;;5094243;28;20234;-71
2022/08/16 02:24:45;;;;;;;15.73;13.97;;;19.40;99.90;;;;;;5093782;28;20582;-71
2022/08/16 02:27:11;;;;;;;15.00;12.50;;;19.30;99.90;;;;;;5094255;28;20507;-71
2022/08/16 02:29:38;;;;;;;14.37;12.57;;;19.40;99.90;;;;;;5094550;28;20537;-71
2022/08/16 02:32:05;;;;;;;15.60;14.00;;;19.40;99.90;;;;;;5095416;28;20806;-72
2022/08/16 02:34:31;;;;;;;19.87;12.97;;;19.30;99.90;;;;;;5094846;28;20905;-71
2022/08/16 02:36:57;;;;;;;15.17;12.47;;;19.30;99.90;;;;;;5094171;28;20488;-71
2022/08/16 02:39:23;;;;;;;16.10;12.47;;;19.40;99.90;;;;;;5094228;28;20432;-70
2022/08/16 02:41:50;;;;;;;19.67;14.60;;;19.30;99.90;;;;;;5093872;28;20178;-72
2022/08/16 02:44:16;;;;;;;15.60;13.27;;;19.30;99.90;;;;;;5093802;28;20352;-72
2022/08/16 02:46:42;;;;;;;16.07;13.13;;;19.20;99.90;;;;;;5093512;28;20423;-72
2022/08/16 02:49:09;;;;;;;16.40;13.20;;;19.20;99.90;;;;;;5093934;28;20439;-72
2022/08/16 02:51:36;;;;;;;14.43;12.13;;;19.30;99.90;;;;;;5094245;28;20402;-70
2022/08/16 02:54:04;;;;;;;14.77;13.10;;;19.30;99.90;;;;;;5094141;28;20409;-72
2022/08/16 02:56:29;;;;;;;16.50;12.40;;;19.30;99.90;;;;;;5093774;28;20418;-72
2022/08/16 02:58:55;;;;;;;14.10;12.47;;;19.30;99.90;;;;;;5094133;28;20886;-70
2022/08/16 03:01:25;;;;;;;17.10;13.30;;;19.20;99.90;;;;;;5093709;28;20193;-72
2022/08/16 03:03:53;;;;;;;14.33;12.83;;;19.20;99.90;;;;;;5093451;28;20185;-72
2022/08/16 03:06:20;;;;;;;15.07;12.40;;;19.20;99.90;;;;;;5092870;28;20541;-71
2022/08/16 03:08:47;;;;;;;16.20;13.17;;;19.20;99.90;;;;;;5093481;28;20427;-71
2022/08/16 03:11:13;;;;;;;13.83;12.40;;;19.20;99.90;;;;;;5093447;28;20468;-72
2022/08/16 03:13:40;;;;;;;14.43;12.90;;;19.10;99.90;;;;;;5093512;28;20824;-71
2022/08/16 03:16:06;;;;;;;16.70;13.47;;;19.10;99.90;;;;;;5092972;28;20455;-71
2022/08/16 03:18:32;;;;;;;17.37;14.17;;;19.20;99.90;;;;;;5093254;28;20419;-70
2022/08/16 03:21:00;;;;;;;16.10;14.30;;;19.20;99.90;;;;;;5093248;28;20405;-72
2022/08/16 03:23:26;;;;;;;14.63;12.13;;;19.10;99.90;;;;;;5093162;28;20429;-72
2022/08/16 03:25:52;;;;;;;17.60;13.97;;;19.20;99.90;;;;;;5092608;28;20460;-71
2022/08/16 03:28:19;;;;;;;13.30;11.97;;;19.10;99.90;;;;;;5093113;28;20439;-72
2022/08/16 03:30:45;;;;;;;16.40;13.43;;;19.10;99.90;;;;;;5093271;28;20169;-72
2022/08/16 03:33:11;;;;;;;13.40;12.00;;;19.10;99.90;;;;;;5092962;28;20400;-71
2022/08/16 03:35:38;;;;;;;15.50;13.53;;;19.10;99.90;;;;;;5092525;28;20432;-72
2022/08/16 03:38:08;;;;;;;18.83;12.93;;;19.20;99.90;;;;;;5093021;28;20432;-71
2022/08/16 03:40:35;;;;;;;17.90;15.47;;;19.10;99.90;;;;;;5093624;28;20406;-72
2022/08/16 03:43:04;;;;;;;17.07;15.03;;;19.10;99.90;;;;;;5095418;28;20404;-73
2022/08/16 03:45:32;;;;;;;19.23;13.70;;;19.10;99.90;;;;;;5095475;28;20525;-72
2022/08/16 03:47:58;;;;;;;16.97;14.27;;;19.10;99.90;;;;;;5093673;28;20490;-72
2022/08/16 03:50:24;;;;;;;17.60;14.53;;;19.10;99.90;;;;;;5093020;28;20456;-72
2022/08/16 03:52:49;;;;;;;17.77;13.67;;;19.10;99.90;;;;;;5093849;28;20878;-73
2022/08/16 03:55:15;;;;;;;17.07;14.20;;;19.20;99.90;;;;;;5092426;28;20242;-70
2022/08/16 03:57:40;;;;;;;18.67;13.90;;;19.20;99.90;;;;;;5093172;28;20174;-71
2022/08/16 04:00:13;;;;;;;13.93;12.53;;;19.10;99.90;;;;;;5075121;28;20322;-72
2022/08/16 04:02:41;;;;;;;21.60;14.13;;;19.20;99.90;;;;;;5093197;28;20223;-73
2022/08/16 04:05:08;;;;;;;17.57;15.27;;;19.20;99.90;;;;;;5092263;28;20466;-73
2022/08/16 04:07:34;;;;;;;17.53;13.93;;;19.10;99.90;;;;;;5092870;28;20414;-73
2022/08/16 04:09:59;;;;;;;17.83;14.40;;;19.20;99.90;;;;;;5092876;28;20539;-73
2022/08/16 04:12:25;;;;;;;17.23;14.30;;;19.20;99.90;;;;;;5092726;28;20229;-74
2022/08/16 04:14:51;;;;;;;17.60;14.17;;;19.20;99.90;;;;;;5092616;28;20189;-72
2022/08/16 04:17:17;;;;;;;17.17;14.60;;;19.20;99.90;;;;;;5092844;28;20419;-72
2022/08/16 04:19:46;;;;;;;15.73;13.67;;;19.20;99.90;;;;;;5092557;28;20565;-73
2022/08/16 04:22:13;;;;;;;18.03;14.87;;;19.20;99.90;;;;;;5094487;28;20217;-73
2022/08/16 04:24:39;;;;;;;16.70;14.87;;;19.20;99.90;;;;;;5093341;28;20452;-73
2022/08/16 04:27:05;;;;;;;18.80;15.37;;;19.30;99.90;;;;;;5074277;28;20462;-73
2022/08/16 04:29:30;;;;;;;17.30;14.50;;;19.30;99.90;;;;;;5092265;28;20189;-73
2022/08/16 04:31:56;;;;;;;18.47;14.43;;;19.30;99.90;;;;;;5092420;28;20163;-72
2022/08/16 04:34:23;;;;;;;18.87;13.10;;;19.40;99.90;;;;;;5092332;28;20187;-71
2022/08/16 04:36:49;;;;;;;16.30;13.40;;;19.40;99.90;;;;;;5092081;28;20179;-71
2022/08/16 04:39:14;;;;;;;20.40;14.00;;;19.40;99.90;;;;;;5092370;28;20947;-71
2022/08/16 04:41:40;;;;;;;15.40;13.00;;;19.50;99.90;;;;;;5092590;28;20465;-72
2022/08/16 04:44:06;;;;;;;15.80;13.23;;;19.50;99.90;;;;;;5092196;28;20657;-72
2022/08/16 04:46:32;;;;;;;14.47;12.93;;;19.60;99.90;;;;;;5091931;28;20453;-72
2022/08/16 04:48:58;;;;;;;14.07;12.47;;;19.70;99.90;;;;;;5092519;28;20170;-72
2022/08/16 04:51:23;;;;;;;13.80;12.40;;;19.70;99.90;;;;;;5092455;28;20154;-72
2022/08/16 04:53:49;;;;;;;16.60;14.00;;;19.80;99.90;;;;;;5092681;28;20408;-72
2022/08/16 04:56:17;;;;;;;15.27;13.67;;;19.80;99.90;;;;;;5092092;28;20612;-73
2022/08/16 04:58:43;;;;;;;13.63;11.37;;;19.90;99.90;;;;;;5092447;28;20519;-73
2022/08/16 05:01:09;;;;;;;13.03;11.73;;;19.90;99.90;;;;;;5092292;28;20407;-73
2022/08/16 05:03:34;;;;;;;12.90;10.30;;;20.00;99.90;;;;;;5092022;28;20409;-73
2022/08/16 05:06:00;;;;;;;13.40;11.37;;;20.10;99.90;;;;;;5092785;28;20300;-73
2022/08/16 05:08:27;;;;;;;15.00;11.60;;;20.10;99.90;;;;;;5095918;28;20564;-72
2022/08/16 05:10:53;;;;;;;11.83;10.63;;;20.20;99.90;;;;;;5096433;28;20658;-75
2022/08/16 05:13:19;;;;;;;14.30;11.80;;;20.20;99.90;;;;;;5096110;28;20929;-72
2022/08/16 05:15:46;;;;;;;12.27;11.07;;;20.30;99.90;;;;;;5095727;28;20422;-72
2022/08/16 05:18:12;;;;;;;11.97;10.43;;;20.40;99.90;;;;;;5095940;28;20173;-73
2022/08/16 05:20:38;;;;;;;12.20;11.00;;;20.50;99.90;;;;;;5095903;28;20556;-73
2022/08/16 05:23:04;;;;;;;13.47;11.63;;;20.60;99.90;;;;;;5077515;28;20456;-73
2022/08/16 05:25:29;;;;;;;10.90;9.70;;;20.70;99.90;;;;;;5095143;28;20247;-72
2022/08/16 05:27:56;;;;;;;12.63;10.90;;;20.70;99.90;;;;;;5081396;22;20232;-71
2022/08/16 05:30:22;;;;;;;10.33;9.20;;;20.80;99.90;;;;;;5054212;28;20183;-70
2022/08/16 05:32:47;;;;;;;10.10;9.10;;;20.90;99.90;;;;;;5054258;28;20395;-70
2022/08/16 05:35:13;;;;;;;10.80;9.20;;;21.10;99.90;;;;;;5053584;28;20453;-71
2022/08/16 05:37:40;;;;;;;12.50;8.97;;;21.40;99.90;;;;;;5053978;28;20209;-71
2022/08/16 05:40:08;;;;;;;13.20;11.53;;;21.60;99.90;;;;;;5054114;28;20214;-69
2022/08/16 05:42:34;;;;;;;9.13;8.30;;;22.00;99.90;;;;;;5054141;28;20405;-70
2022/08/16 05:45:00;;;;;;;8.77;7.90;;;22.40;99.90;;;;;;5053968;28;20470;-71
2022/08/16 05:47:26;;;;;;;9.80;8.63;;;22.70;99.90;;;;;;5054018;28;20551;-70
2022/08/16 05:49:52;;;;;;;10.17;9.27;;;23.00;99.90;;;;;;5053915;28;20234;-73
2022/08/16 05:52:18;;;;;;;9.57;8.47;;;23.20;99.90;;;;;;5054444;28;20410;-71
2022/08/16 05:54:44;;;;;;;10.53;8.10;;;23.40;99.90;;;;;;5053987;28;20793;-71
2022/08/16 05:57:10;;;;;;;9.97;8.97;;;23.40;99.90;;;;;;5053810;28;20659;-74
2022/08/16 05:59:35;;;;;;;12.07;8.70;;;23.50;99.90;;;;;;5036063;28;20452;-70
2022/08/16 06:02:02;;;;;;;9.43;8.50;;;23.60;99.90;;;;;;5053681;28;20437;-70
2022/08/16 06:04:27;;;;;;;10.07;9.07;;;24.00;99.90;;;;;;5035407;28;20205;-70
2022/08/16 06:06:53;;;;;;;10.60;9.57;;;24.30;99.90;;;;;;5050483;28;20452;-70
2022/08/16 06:09:19;;;;;;;9.57;8.67;;;24.50;99.90;;;;;;5052749;28;20174;-71
2022/08/16 06:11:45;;;;;;;10.30;8.87;;;24.80;99.90;;;;;;5053274;28;20163;-71
2022/08/16 06:14:11;;;;;;;11.70;10.50;;;24.80;99.90;;;;;;5053112;28;20175;-71
2022/08/16 06:16:37;;;;;;;11.00;10.00;;;25.00;99.90;;;;;;5052517;28;20428;-71
2022/08/16 06:19:03;;;;;;;10.33;9.33;;;25.40;99.90;;;;;;5052374;28;20498;-71
2022/08/16 06:21:29;;;;;;;10.33;9.33;;;25.50;99.90;;;;;;5052842;28;21009;-70
2022/08/16 06:23:55;;;;;;;11.77;10.53;;;25.50;99.90;;;;;;5052613;28;20409;-71
2022/08/16 06:26:20;;;;;;;10.83;9.77;;;25.90;99.90;;;;;;5052289;28;20585;-71
2022/08/16 06:28:46;;;;;;;9.73;8.73;;;26.10;99.90;;;;;;5052907;28;20170;-71
2022/08/16 06:31:13;;;;;;;9.63;8.73;;;26.30;99.90;;;;;;5052915;28;20162;-71
2022/08/16 06:33:40;;;;;;;8.57;7.77;;;26.70;99.90;;;;;;5034799;28;20178;-71
2022/08/16 06:36:07;;;;;;;8.60;7.80;;;27.20;99.90;;;;;;5052254;28;20991;-71
2022/08/16 06:38:34;;;;;;;9.17;8.23;;;27.10;99.90;;;;;;5052696;28;20402;-70
2022/08/16 06:41:08;;;;;;;8.40;7.60;;;27.60;99.90;;;;;;5052716;28;20405;-70
2022/08/16 06:43:34;;;;;;;7.97;7.27;;;27.80;99.90;;;;;;5052942;28;20433;-70
2022/08/16 06:46:01;;;;;;;8.43;7.63;;;27.40;99.90;;;;;;5051973;28;20971;-70
2022/08/16 06:48:28;;;;;;;8.67;7.90;;;27.10;99.90;;;;;;5052379;28;20254;-70
2022/08/16 06:50:53;;;;;;;8.87;8.10;;;27.70;99.90;;;;;;5052364;28;20415;-71
2022/08/16 06:53:19;;;;;;;8.23;7.37;;;27.60;99.90;;;;;;5056829;28;20410;-71
2022/08/16 06:55:45;;;;;;;12.27;8.10;;;28.00;99.90;;;;;;5056084;28;20174;-71
2022/08/16 06:58:11;;;;;;;10.80;8.67;;;28.10;99.90;;;;;;5052494;28;20443;-70
2022/08/16 07:00:37;;;;;;;9.27;8.10;;;27.70;99.90;;;;;;5052254;28;20174;-70
2022/08/16 07:03:03;;;;;;;7.70;7.10;;;27.90;99.90;;;;;;5052695;28;20645;-71
2022/08/16 07:05:30;;;;;;;9.77;8.83;;;28.80;99.90;;;;;;5051904;28;20464;-70
2022/08/16 07:07:56;;;;;;;8.73;7.93;;;28.20;99.90;;;;;;5051995;28;20519;-69
2022/08/16 07:10:22;;;;;;;8.27;7.50;;;28.30;99.90;;;;;;5052022;28;20406;-71
2022/08/16 07:12:49;;;;;;;8.30;7.60;;;27.60;99.90;;;;;;5052539;28;20508;-71
2022/08/16 07:15:16;;;;;;;8.30;7.53;;;27.80;99.90;;;;;;5051589;28;20940;-70
2022/08/16 07:17:43;;;;;;;10.07;9.17;;;28.60;99.90;;;;;;5051970;28;20491;-69
2022/08/16 07:20:09;;;;;;;10.80;7.70;;;28.20;99.90;;;;;;5051806;28;20926;-71
2022/08/16 07:22:35;;;;;;;8.43;7.63;;;28.50;99.90;;;;;;5052197;28;20919;-71
2022/08/16 07:25:01;;;;;;;8.00;7.30;;;28.90;99.90;;;;;;5051603;28;20473;-71
2022/08/16 07:27:27;;;;;;;9.63;7.67;;;28.80;99.90;;;;;;5051874;28;20203;-71
2022/08/16 07:29:52;;;;;;;11.37;10.37;;;28.70;99.90;;;;;;5051929;28;20809;-70
2022/08/16 07:32:19;;;;;;;10.53;9.20;;;28.90;99.90;;;;;;5051955;28;20193;-70
2022/08/16 07:34:45;;;;;;;9.43;8.60;;;29.00;99.90;;;;;;5051296;28;20244;-70
2022/08/16 07:37:11;;;;;;;9.73;8.83;;;28.70;99.90;;;;;;5051668;28;21022;-73
2022/08/16 07:39:38;;;;;;;8.50;7.80;;;28.80;99.90;;;;;;5052006;28;20596;-71
2022/08/16 07:42:04;;;;;;;8.33;7.50;;;28.50;99.90;;;;;;5051647;28;20416;-71
2022/08/16 07:44:30;;;;;;;8.40;7.60;;;28.30;99.90;;;;;;5051424;28;20463;-71
2022/08/16 07:46:56;;;;;;;7.80;7.07;;;28.50;99.90;;;;;;5051464;28;20791;-71
2022/08/16 07:49:22;;;;;;;7.17;6.57;;;29.40;99.90;;;;;;5051736;28;20545;-70
2022/08/16 07:51:48;;;;;;;7.83;7.13;;;29.50;99.90;;;;;;5051732;28;20167;-71
2022/08/16 07:54:13;;;;;;;9.17;8.37;;;29.40;99.90;;;;;;5051491;28;20411;-72
2022/08/16 07:56:39;;;;;;;7.80;7.10;;;28.80;99.90;;;;;;5051124;28;20195;-71
2022/08/16 07:59:05;;;;;;;9.23;8.40;;;28.30;99.90;;;;;;5051452;28;20166;-71
2022/08/16 08:01:32;;;;;;;9.93;7.30;;;28.60;99.90;;;;;;5051474;28;20241;-70
2022/08/16 08:03:58;;;;;;;8.07;7.27;;;29.20;99.90;;;;;;5051330;28;20413;-70
2022/08/16 08:06:27;;;;;;;7.27;6.60;;;29.10;99.90;;;;;;5050849;28;20531;-70
2022/08/16 08:08:54;;;;;;;8.53;7.40;;;29.20;99.90;;;;;;5051400;28;20413;-70
2022/08/16 08:11:21;;;;;;;7.97;7.30;;;29.70;99.90;;;;;;5051397;28;20883;-70
2022/08/16 08:13:47;;;;;;;6.13;5.57;;;28.50;99.90;;;;;;5050649;28;20791;-70
2022/08/16 08:16:13;;;;;;;8.00;7.30;;;28.60;99.90;;;;;;5054211;28;20428;-70
2022/08/16 08:18:39;;;;;;;6.63;6.03;;;30.00;99.90;;;;;;5054274;28;20457;-70
2022/08/16 08:21:06;;;;;;;7.60;6.90;;;29.70;99.90;;;;;;5051177;28;20182;-70
2022/08/16 08:23:35;;;;;;;6.87;6.37;;;29.90;99.90;;;;;;5032912;28;20415;-71
2022/08/16 08:26:02;;;;;;;8.40;7.50;;;30.10;99.90;;;;;;5050534;28;20457;-70
2022/08/16 08:28:30;;;;;;;8.67;7.67;;;30.10;99.90;;;;;;5051524;28;20429;-70
2022/08/16 08:30:57;;;;;;;9.90;9.00;;;30.60;99.90;;;;;;5050948;28;20483;-71
2022/08/16 08:33:23;;;;;;;10.63;9.63;;;30.10;99.90;;;;;;5062245;28;20492;-73
2022/08/16 08:35:48;;;;;;;10.33;9.33;;;30.10;99.90;;;;;;5070604;28;20456;-71
2022/08/16 08:38:15;;;;;;;8.23;7.63;;;30.40;99.90;;;;;;5064972;28;20262;-71
2022/08/16 08:40:42;;;;;;;6.53;5.93;;;30.40;99.90;;;;;;5050283;28;20178;-71
2022/08/16 08:43:10;;;;;;;7.93;7.23;;;29.40;99.90;;;;;;5063383;28;20795;-70
2022/08/16 08:45:36;;;;;;;6.90;5.97;;;29.20;99.90;;;;;;5070605;28;20444;-70
2022/08/16 08:48:02;;;;;;;7.03;6.37;;;29.50;99.90;;;;;;5059887;28;20805;-70
2022/08/16 08:50:27;;;;;;;7.70;6.97;;;30.10;99.90;;;;;;5051018;28;20174;-72
2022/08/16 08:52:54;;;;;;;7.70;7.03;;;29.50;99.90;;;;;;5050903;28;20189;-71
2022/08/16 08:55:21;;;;;;;7.73;7.03;;;29.00;99.90;;;;;;5050748;28;20194;-70
2022/08/16 08:57:49;;;;;;;6.10;5.60;;;29.80;99.90;;;;;;5090087;22;20567;-70
2022/08/16 09:00:16;;;;;;;7.50;6.73;;;30.00;99.90;;;;;;5044059;28;20735;-71
2022/08/16 09:02:43;;;;;;;8.77;5.80;;;29.40;99.90;;;;;;5050508;28;20421;-71
2022/08/16 09:05:09;;;;;;;6.10;5.60;;;29.30;99.90;;;;;;5050242;28;20504;-71
2022/08/16 09:07:36;;;;;;;6.63;5.97;;;29.90;99.90;;;;;;5050038;28;20442;-71
2022/08/16 09:10:04;;;;;;;8.80;5.40;;;30.30;99.90;;;;;;5050637;28;20441;-71
2022/08/16 09:12:29;;;;;;;6.70;6.10;;;30.00;99.90;;;;;;5050532;28;20806;-71
2022/08/16 09:14:55;;;;;;;6.80;6.20;;;29.40;99.90;;;;;;5050087;28;20510;-71
2022/08/16 09:17:21;;;;;;;6.47;5.97;;;29.20;99.90;;;;;;5063489;28;20194;-70
2022/08/16 09:19:46;;;;;;;7.13;6.43;;;29.50;99.90;;;;;;5070341;28;20243;-72
2022/08/16 09:22:12;;;;;;;6.23;5.73;;;30.10;99.90;;;;;;5070686;28;20234;-71
2022/08/16 09:24:38;;;;;;;6.87;6.27;;;30.00;99.90;;;;;;5070129;28;20296;-70
2022/08/16 09:27:04;;;;;;;6.50;5.73;;;29.70;99.90;;;;;;5070029;28;20190;-70
2022/08/16 09:29:30;;;;;;;5.80;5.23;;;29.50;99.90;;;;;;5070235;28;20245;-71
2022/08/16 09:31:57;;;;;;;5.83;5.33;;;29.90;99.90;;;;;;5070432;28;20158;-71
2022/08/16 09:34:23;;;;;;;6.47;5.87;;;30.30;99.90;;;;;;5070185;28;20422;-71
2022/08/16 09:36:48;;;;;;;6.67;6.07;;;29.70;99.90;;;;;;5070094;28;20520;-70
2022/08/16 09:39:16;;;;;;;6.77;6.17;;;29.60;99.90;;;;;;5070407;28;20392;-70
2022/08/16 09:41:43;;;;;;;7.20;6.60;;;30.00;99.90;;;;;;5070065;28;20170;-71
2022/08/16 09:44:08;;;;;;;6.00;5.43;;;30.40;99.90;;;;;;5070441;28;20455;-71
2022/08/16 09:46:34;;;;;;;7.80;6.20;;;29.60;99.90;;;;;;5069774;28;20460;-71
2022/08/16 09:48:59;;;;;;;5.30;4.90;;;29.50;99.90;;;;;;5071016;28;20166;-71
2022/08/16 09:51:25;;;;;;;6.97;6.47;;;30.50;99.90;;;;;;5063768;28;20642;-71
2022/08/16 09:53:54;;;;;;;6.70;6.20;;;31.00;99.90;;;;;;5072466;28;20169;-71
2022/08/16 09:56:31;;;;;;;6.17;5.57;;;30.30;99.90;;;;;;5072982;28;20205;-70
2022/08/16 09:58:59;;;;;;;6.87;5.90;;;30.20;99.90;;;;;;5060957;28;20437;-70
2022/08/16 10:01:25;;;;;;;9.83;9.03;;;29.60;99.90;;;;;;5053308;28;20412;-71
2022/08/16 10:03:52;;;;;;;8.67;7.87;;;30.10;99.90;;;;;;5053370;28;20421;-71
2022/08/16 10:06:20;;;;;;;7.33;6.70;;;29.30;99.90;;;;;;5052948;28;20198;-72
2022/08/16 10:08:46;;;;;;;10.13;9.07;;;28.40;99.90;;;;;;5057394;28;20420;-71
2022/08/16 10:13:56;;;;;;;8.77;7.57;;;28.70;99.90;;;;;;5053471;28;20438;-70
2022/08/16 10:16:22;;;;;;;6.93;6.33;;;29.10;99.90;;;;;;5040051;28;20436;-70
2022/08/16 10:18:47;;;;;;;11.60;9.77;;;29.20;99.90;;;;;;5073136;28;20226;-70
2022/08/16 10:21:14;;;;;;;6.93;6.33;;;29.30;99.90;;;;;;5073027;28;20188;-70
2022/08/16 10:23:40;;;;;;;12.60;11.30;;;29.10;99.90;;;;;;5057361;28;20710;-71
2022/08/16 10:26:06;;;;;;;10.87;9.83;;;28.50;99.90;;;;;;5061380;28;20923;-72
2022/08/16 10:28:31;;;;;;;15.83;13.67;;;29.00;99.90;;;;;;5071440;28;20400;-71
2022/08/16 10:31:00;;;;;;;7.13;6.40;;;29.20;99.90;;;;;;5049756;28;20189;-71
2022/08/16 10:33:27;;;;;;;7.57;6.83;;;29.30;99.90;;;;;;5033413;28;20233;-72
2022/08/16 10:35:53;;;;;;;9.40;7.50;;;29.30;99.90;;;;;;5046438;28;20500;-72
2022/08/16 10:38:19;;;;;;;7.23;6.53;;;29.40;99.90;;;;;;5072705;28;20487;-71
2022/08/16 10:40:45;;;;;;;8.60;6.20;;;29.00;99.90;;;;;;5072681;28;20400;-71
2022/08/16 10:43:11;;;;;;;7.23;6.53;;;29.10;99.90;;;;;;5063372;28;20287;-71
2022/08/16 10:45:37;;;;;;;6.23;5.70;;;29.00;99.90;;;;;;5057945;28;20254;-71
2022/08/16 10:48:05;;;;;;;7.03;6.13;;;28.70;99.90;;;;;;5072586;28;20413;-71
2022/08/16 10:50:31;;;;;;;6.37;5.90;;;28.50;99.90;;;;;;5067208;28;21002;-71
2022/08/16 10:52:57;;;;;;;6.00;5.50;;;28.30;99.90;;;;;;5052265;28;20428;-71
2022/08/16 10:55:23;;;;;;;7.63;6.13;;;28.60;99.90;;;;;;5052050;28;20384;-71
2022/08/16 10:57:48;;;;;;;7.37;6.63;;;28.60;99.90;;;;;;5066819;28;20462;-70
2022/08/16 11:00:16;;;;;;;6.53;5.93;;;28.80;99.90;;;;;;5072172;28;20178;-71
2022/08/16 11:02:43;;;;;;;6.40;5.87;;;28.60;99.90;;;;;;5047566;28;20186;-71
2022/08/16 11:05:11;;;;;;;6.90;6.27;;;28.60;99.90;;;;;;5051215;28;20444;-71
2022/08/16 11:07:47;;;;;;;9.73;8.67;;;28.60;99.90;;;;;;5052188;28;20440;-70
2022/08/16 11:10:16;;;;;;;11.80;10.60;;;28.70;99.90;;;;;;5052433;28;20409;-71
2022/08/16 11:12:41;;;;;;;6.87;6.27;;;28.80;99.90;;;;;;5052343;28;20409;-71
2022/08/16 11:15:07;;;;;;;6.67;6.07;;;28.20;99.90;;;;;;5050404;28;20500;-70
2022/08/16 11:17:33;;;;;;;8.93;8.23;;;28.30;99.90;;;;;;5066645;28;20194;-71
2022/08/16 11:19:59;;;;;;;6.30;5.70;;;29.20;99.90;;;;;;5071807;28;20186;-70
2022/08/16 11:22:25;;;;;;;8.23;5.67;;;29.50;99.90;;;;;;5061021;28;20466;-69
2022/08/16 11:24:51;;;;;;;6.93;6.10;;;29.40;99.90;;;;;;5051616;28;20452;-70
2022/08/16 11:27:21;;;;;;;6.17;5.47;;;29.10;99.90;;;;;;5064669;22;20223;-66
2022/08/16 11:29:53;;;;;;;7.13;6.17;;;29.20;99.90;;;;;;5051495;28;20167;-66
2022/08/16 11:32:20;;;;;;;7.20;6.50;;;29.00;99.90;;;;;;5052153;28;20489;-66
2022/08/16 11:34:46;;;;;;;7.07;6.47;;;29.50;99.90;;;;;;5051819;28;20397;-66
2022/08/16 11:37:11;;;;;;;5.03;4.63;;;29.70;99.90;;;;;;5052233;28;20938;-66
2022/08/16 11:39:37;;;;;;;6.37;5.87;;;29.40;99.90;;;;;;5051990;28;20670;-66
2022/08/16 11:42:03;;;;;;;6.63;6.13;;;29.40;99.90;;;;;;5051765;28;20183;-66
2022/08/16 11:44:28;;;;;;;5.80;5.40;;;29.50;99.90;;;;;;5051656;28;20270;-66
2022/08/16 11:46:54;;;;;;;7.77;6.20;;;29.60;99.90;;;;;;5051865;28;20895;-67
2022/08/16 11:49:19;;;;;;;6.77;6.17;;;29.50;99.90;;;;;;5052349;28;20713;-67
2022/08/16 11:51:45;;;;;;;9.13;6.33;;;29.00;99.90;;;;;;5051752;28;20246;-66
2022/08/16 11:54:12;;;;;;;7.03;6.40;;;29.20;99.90;;;;;;5052235;28;20547;-66
2022/08/16 11:56:37;;;;;;;7.30;5.83;;;29.40;99.90;;;;;;5051385;28;20178;-66
2022/08/16 11:59:03;;;;;;;9.33;8.43;;;29.90;99.90;;;;;;5051830;28;20409;-67
2022/08/16 12:01:29;;;;;;;7.00;6.30;;;30.20;99.90;;;;;;5051706;28;20174;-66
2022/08/16 12:03:55;;;;;;;5.97;5.37;;;29.80;99.90;;;;;;5051689;28;20182;-66
2022/08/16 12:06:20;;;;;;;10.00;9.10;;;29.70;99.90;;;;;;5051125;28;20634;-66
2022/08/16 12:08:46;;;;;;;8.70;7.87;;;30.20;99.90;;;;;;5051334;28;20461;-66
2022/08/16 12:11:13;;;;;;;7.53;6.80;;;30.50;99.10;;;;;;5051527;28;20163;-65
2022/08/16 12:13:41;;;;;;;9.53;8.63;;;30.60;99.50;;;;;;5051137;28;20416;-66
2022/08/16 12:16:07;;;;;;;6.50;6.00;;;30.70;99.10;;;;;;5053891;28;20400;-66
2022/08/16 12:18:34;;;;;;;9.20;8.30;;;30.70;98.30;;;;;;5071279;28;20432;-66
2022/08/16 12:21:00;;;;;;;7.90;7.30;;;30.70;98.10;;;;;;5071030;28;20469;-65
2022/08/16 12:23:26;;;;;;;6.70;6.10;;;30.10;99.30;;;;;;5071135;28;20400;-65
2022/08/16 12:25:52;;;;;;;8.90;5.97;;;30.30;98.70;;;;;;5070814;28;20285;-65
2022/08/16 12:28:18;;;;;;;7.57;5.70;;;30.70;98.90;;;;;;5070908;28;20535;-65
2022/08/16 12:30:45;;;;;;;6.10;5.60;;;30.80;98.80;;;;;;5055399;28;20413;-65
2022/08/16 12:33:15;;;;;;;5.47;4.97;;;31.10;98.70;;;;;;5051354;28;20402;-66
2022/08/16 12:35:42;;;;;;;8.47;6.27;;;31.00;97.80;;;;;;5050452;28;20413;-65
2022/08/16 12:38:09;;;;;;;6.10;5.50;;;30.50;97.80;;;;;;5051113;28;20502;-66